Time;durP1;ratioP1;P1;durP2;ratioP2;P2;SDS_P1;SDS_P2;PMS_P1;PMS_P2;Temp;Humidity;BMP_temperature;BMP_pressure;BME280_temperature;BME280_humidity;BME280_pressure;Samples;Min_cycle;Max_cycle;Signal;HPM_P1;HPM_P2
2021/10/24 00:00:19;;;;;;;18.90;8.40;;;5.60;99.90;;;;;;12310334;28;20042;-84
2021/10/24 00:06:21;;;;;;;12.82;7.40;;;5.40;99.90;;;;;;12307651;28;20067;-84
2021/10/24 00:12:22;;;;;;;16.63;8.00;;;5.40;99.90;;;;;;12310680;28;20047;-84
2021/10/24 00:18:24;;;;;;;14.35;7.38;;;5.30;99.90;;;;;;12305442;28;20126;-84
2021/10/24 00:24:26;;;;;;;14.40;7.93;;;5.20;99.90;;;;;;12303589;28;20467;-85
2021/10/24 00:30:28;;;;;;;13.88;8.48;;;5.10;99.90;;;;;;12316968;28;20046;-84
2021/10/24 00:36:30;;;;;;;16.17;7.82;;;5.10;99.90;;;;;;12322760;28;20081;-84
2021/10/24 00:42:32;;;;;;;16.58;7.40;;;5.00;99.90;;;;;;12317337;28;20069;-84
2021/10/24 00:48:34;;;;;;;15.25;7.50;;;5.10;99.90;;;;;;12311559;28;20057;-84
2021/10/24 00:54:39;;;;;;;14.90;7.13;;;5.00;99.90;;;;;;12313538;28;20046;-84
2021/10/24 01:00:41;;;;;;;14.88;6.82;;;4.90;99.90;;;;;;12312725;28;20257;-84
2021/10/24 01:06:43;;;;;;;14.15;6.18;;;4.90;99.90;;;;;;12341403;28;20046;-84
2021/10/24 01:12:49;;;;;;;12.10;5.70;;;4.90;99.90;;;;;;12311932;28;20100;-84
2021/10/24 01:18:52;;;;;;;11.40;5.53;;;5.00;99.90;;;;;;12302348;28;20051;-85
2021/10/24 01:24:56;;;;;;;11.60;5.50;;;5.10;99.90;;;;;;12307899;28;20077;-85
2021/10/24 01:30:58;;;;;;;15.50;6.05;;;5.00;99.90;;;;;;12305269;28;20137;-84
2021/10/24 01:37:00;;;;;;;13.77;6.47;;;5.00;99.90;;;;;;12303775;28;20082;-84
2021/10/24 01:43:02;;;;;;;11.85;5.93;;;4.80;99.90;;;;;;12303094;28;20067;-84
2021/10/24 01:49:04;;;;;;;10.40;5.28;;;4.70;99.90;;;;;;12299370;28;20605;-85
2021/10/24 01:55:08;;;;;;;11.80;5.70;;;4.80;99.90;;;;;;12311122;28;20141;-84
2021/10/24 02:01:11;;;;;;;12.57;5.70;;;4.90;99.90;;;;;;12310120;28;20047;-84
2021/10/24 02:07:13;;;;;;;11.32;5.35;;;4.80;99.90;;;;;;12340048;28;20050;-85
2021/10/24 02:13:15;;;;;;;10.55;5.57;;;4.80;99.90;;;;;;12305736;28;20563;-85
2021/10/24 02:19:17;;;;;;;12.23;5.40;;;4.80;99.90;;;;;;12309156;28;20172;-85
2021/10/24 02:25:20;;;;;;;9.15;5.55;;;4.70;99.90;;;;;;12307880;28;20046;-85
2021/10/24 02:31:21;;;;;;;12.55;5.45;;;4.60;99.90;;;;;;12309634;28;20470;-84
2021/10/24 02:37:25;;;;;;;12.20;5.30;;;4.70;99.90;;;;;;12319090;28;20504;-85
2021/10/24 02:43:27;;;;;;;15.10;5.35;;;4.60;99.90;;;;;;12340133;28;20063;-85
2021/10/24 02:49:29;;;;;;;10.68;5.57;;;4.50;99.90;;;;;;12313997;28;20138;-85
2021/10/24 02:55:31;;;;;;;13.82;5.50;;;4.50;99.90;;;;;;12326986;28;20093;-85
2021/10/24 03:01:33;;;;;;;9.93;5.20;;;4.50;99.90;;;;;;12309623;28;20043;-85
2021/10/24 03:07:35;;;;;;;13.70;5.40;;;4.60;99.90;;;;;;12306018;28;20073;-85
2021/10/24 03:13:37;;;;;;;10.43;5.55;;;4.60;99.90;;;;;;12304640;28;20093;-85
2021/10/24 03:19:40;;;;;;;12.40;5.10;;;4.50;99.90;;;;;;12307833;28;20054;-85
2021/10/24 03:25:42;;;;;;;11.27;5.70;;;4.40;99.90;;;;;;12301389;28;20082;-84
2021/10/24 03:31:44;;;;;;;10.85;5.63;;;4.30;99.90;;;;;;12308968;28;20043;-85
2021/10/24 03:37:46;;;;;;;12.13;5.55;;;4.30;99.90;;;;;;12338009;28;20519;-84
2021/10/24 03:43:48;;;;;;;11.43;5.10;;;4.30;99.90;;;;;;12297392;28;20101;-84
2021/10/24 03:49:49;;;;;;;13.10;5.90;;;4.20;99.90;;;;;;12298187;28;20058;-84
2021/10/24 03:55:51;;;;;;;9.55;5.13;;;4.10;99.90;;;;;;12337773;28;20101;-85
2021/10/24 04:01:53;;;;;;;11.35;5.28;;;4.20;99.90;;;;;;12317071;28;20051;-84
2021/10/24 04:07:55;;;;;;;11.60;5.50;;;4.10;99.90;;;;;;12317035;28;20082;-85
2021/10/24 04:13:57;;;;;;;10.25;5.00;;;3.90;99.90;;;;;;12314382;28;20062;-85
2021/10/24 04:19:59;;;;;;;7.78;4.43;;;3.90;99.90;;;;;;12316669;28;20047;-85
2021/10/24 04:26:03;;;;;;;9.13;4.68;;;4.00;99.90;;;;;;12316031;28;20078;-85
2021/10/24 04:32:05;;;;;;;9.10;4.82;;;3.90;99.90;;;;;;12312619;28;20050;-84
2021/10/24 04:38:07;;;;;;;12.27;7.78;;;3.90;99.90;;;;;;12309885;28;20085;-85
2021/10/24 04:44:09;;;;;;;15.25;6.53;;;3.90;99.90;;;;;;12316359;28;20086;-84
2021/10/24 04:50:10;;;;;;;12.63;6.35;;;3.80;99.90;;;;;;12312437;28;20573;-84
2021/10/24 04:56:13;;;;;;;11.95;4.85;;;3.70;99.90;;;;;;12314853;28;20419;-85
2021/10/24 05:02:15;;;;;;;13.18;5.05;;;3.70;99.90;;;;;;12317443;28;20138;-84
2021/10/24 05:08:18;;;;;;;13.38;5.47;;;3.70;99.90;;;;;;12316765;28;20058;-84
2021/10/24 05:14:20;;;;;;;10.93;5.03;;;3.70;99.90;;;;;;12325595;28;20051;-84
2021/10/24 05:20:21;;;;;;;10.10;5.10;;;3.60;99.90;;;;;;12339211;28;20063;-85
2021/10/24 05:26:23;;;;;;;7.70;4.30;;;3.70;99.90;;;;;;12305826;28;20058;-84
2021/10/24 05:32:25;;;;;;;8.32;4.72;;;3.70;99.90;;;;;;12307162;28;20043;-84
2021/10/24 05:38:27;;;;;;;13.18;5.28;;;3.70;99.90;;;;;;12307475;28;20055;-84
2021/10/24 05:44:31;;;;;;;9.57;5.00;;;3.60;99.90;;;;;;12309654;28;20054;-85
2021/10/24 05:50:33;;;;;;;12.60;5.32;;;3.70;99.90;;;;;;12304246;28;20058;-84
2021/10/24 05:56:35;;;;;;;11.25;4.28;;;3.60;99.90;;;;;;12304793;28;20065;-84
2021/10/24 06:02:37;;;;;;;10.20;4.32;;;3.60;99.90;;;;;;12301132;28;20058;-84
2021/10/24 06:08:41;;;;;;;14.77;4.43;;;3.60;99.90;;;;;;12303311;28;20101;-84
2021/10/24 06:14:43;;;;;;;7.93;4.47;;;3.60;99.90;;;;;;12306761;28;20379;-84
2021/10/24 06:20:45;;;;;;;8.68;4.70;;;3.60;99.90;;;;;;12304245;28;20408;-84
2021/10/24 06:26:47;;;;;;;8.45;4.50;;;3.60;99.90;;;;;;12311515;28;20065;-84
2021/10/24 06:32:52;;;;;;;10.23;4.53;;;3.60;99.90;;;;;;12307596;28;20047;-83
2021/10/24 06:38:53;;;;;;;11.52;5.00;;;3.50;99.90;;;;;;12329874;28;20070;-84
2021/10/24 06:44:56;;;;;;;9.10;4.90;;;3.50;99.90;;;;;;12310249;28;20117;-84
2021/10/24 06:50:57;;;;;;;8.65;5.85;;;3.50;99.90;;;;;;12339053;28;20070;-84
2021/10/24 06:56:59;;;;;;;11.20;5.15;;;3.60;99.90;;;;;;12304952;28;20489;-84
2021/10/24 07:03:01;;;;;;;13.13;5.53;;;3.40;99.90;;;;;;12300813;28;20067;-83
2021/10/24 07:09:03;;;;;;;11.18;5.30;;;3.50;99.90;;;;;;12305944;28;20050;-84
2021/10/24 07:15:07;;;;;;;10.27;5.15;;;3.50;99.90;;;;;;12296406;28;20047;-84
2021/10/24 07:21:09;;;;;;;11.30;5.70;;;3.70;99.90;;;;;;12301939;28;20145;-84
2021/10/24 07:27:10;;;;;;;14.98;6.25;;;3.70;99.90;;;;;;12306061;28;20054;-83
2021/10/24 07:33:12;;;;;;;11.98;6.60;;;3.80;99.90;;;;;;12309929;28;20043;-84
2021/10/24 07:39:14;;;;;;;12.70;6.20;;;3.80;99.90;;;;;;12312343;28;20101;-84
2021/10/24 07:45:16;;;;;;;13.27;6.57;;;3.90;99.90;;;;;;12298655;28;20629;-84
2021/10/24 07:51:18;;;;;;;13.43;5.10;;;4.20;99.90;;;;;;12316519;28;21084;-83
2021/10/24 07:57:21;;;;;;;11.15;4.43;;;4.70;99.90;;;;;;12314050;28;20059;-84
2021/10/24 08:03:23;;;;;;;6.88;3.90;;;5.80;99.90;;;;;;12303148;28;20071;-85
2021/10/24 08:09:24;;;;;;;9.90;3.95;;;6.40;99.90;;;;;;12347756;28;20100;-84
2021/10/24 08:15:26;;;;;;;10.70;3.67;;;6.80;99.90;;;;;;12345756;28;20093;-85
2021/10/24 08:21:29;;;;;;;11.50;3.65;;;7.10;99.90;;;;;;12307346;28;20059;-83
2021/10/24 08:27:32;;;;;;;10.32;3.60;;;7.30;99.90;;;;;;12311769;28;20149;-86
2021/10/24 08:33:35;;;;;;;7.18;2.88;;;7.50;99.90;;;;;;12316149;28;20105;-85
2021/10/24 08:39:38;;;;;;;10.00;2.95;;;7.70;99.90;;;;;;12313592;28;20135;-85
2021/10/24 08:45:42;;;;;;;6.93;2.55;;;7.90;99.90;;;;;;12339505;28;20137;-84
2021/10/24 08:51:44;;;;;;;8.25;2.97;;;8.00;99.90;;;;;;12309441;28;20480;-86
2021/10/24 08:57:48;;;;;;;10.52;2.80;;;8.10;99.90;;;;;;12353329;28;20042;-84
2021/10/24 09:04:13;;;;;;;10.07;3.17;;;8.20;99.90;;;;;;12304632;28;20058;-86
2021/10/24 09:10:35;;;;;;;9.65;3.78;;;8.00;99.90;;;;;;12301245;28;20054;-85
2021/10/24 09:16:53;;;;;;;13.05;3.88;;;8.00;99.90;;;;;;12306318;28;20054;-86
2021/10/24 09:23:09;;;;;;;7.80;3.50;;;8.00;99.90;;;;;;12330989;28;20058;-84
2021/10/24 09:29:14;;;;;;;7.35;3.15;;;8.20;99.90;;;;;;12303210;28;20134;-85
2021/10/24 09:35:16;;;;;;;6.97;3.45;;;8.40;99.90;;;;;;12298810;28;20050;-85
2021/10/24 09:41:29;;;;;;;10.63;3.83;;;8.60;99.90;;;;;;12305622;28;20102;-84
2021/10/24 09:47:33;;;;;;;6.45;3.10;;;8.50;99.90;;;;;;12286425;28;20054;-87
2021/10/24 09:53:38;;;;;;;6.47;3.28;;;8.70;99.90;;;;;;12315401;28;20054;-85
2021/10/24 09:59:40;;;;;;;9.45;2.92;;;8.80;99.90;;;;;;12337374;28;20050;-86
2021/10/24 10:05:42;;;;;;;8.75;3.30;;;8.90;99.90;;;;;;12310095;28;20054;-85
2021/10/24 10:12:05;;;;;;;5.28;2.95;;;9.10;99.90;;;;;;12300622;28;20043;-87
2021/10/24 10:18:08;;;;;;;6.93;2.90;;;9.30;99.90;;;;;;12312803;28;20463;-84
2021/10/24 10:24:35;;;;;;;7.40;3.10;;;9.50;99.90;;;;;;12311906;28;20055;-84
2021/10/24 10:30:40;;;;;;;4.70;2.73;;;9.80;99.90;;;;;;12304932;28;20130;-87
2021/10/24 10:36:45;;;;;;;;;;;10.10;99.90;;;;;;12306067;28;20050;-85
2021/10/24 10:42:48;;;;;;;;;;;10.00;99.90;;;;;;12339738;28;20289;-86
2021/10/24 10:48:50;;;;;;;6.93;2.60;;;10.30;99.90;;;;;;12297885;28;20013;-86
2021/10/24 10:54:55;;;;;;;9.40;2.83;;;10.50;99.90;;;;;;12333738;28;20067;-86
2021/10/24 11:00:57;;;;;;;4.97;2.40;;;10.90;99.90;;;;;;12298947;28;20042;-86
2021/10/24 11:07:00;;;;;;;7.93;2.55;;;11.00;99.90;;;;;;12304345;28;20074;-86
2021/10/24 11:13:02;;;;;;;6.85;2.63;;;11.10;99.90;;;;;;12300045;28;20122;-86
2021/10/24 11:19:29;;;;;;;5.55;2.20;;;11.30;99.90;;;;;;12301842;28;20134;-87
2021/10/24 11:25:38;;;;;;;5.50;2.17;;;11.60;99.90;;;;;;12292661;28;20054;-84
2021/10/24 11:31:40;;;;;;;4.45;2.10;;;11.80;99.90;;;;;;12316015;28;20513;-85
2021/10/24 11:37:58;;;;;;;5.68;2.10;;;12.00;99.90;;;;;;12315987;28;20161;-86
2021/10/24 11:44:10;;;;;;;6.32;1.90;;;12.00;99.90;;;;;;12309284;28;20057;-85
2021/10/24 11:50:11;;;;;;;6.00;2.42;;;12.30;99.90;;;;;;12336509;28;20587;-86
2021/10/24 11:56:36;;;;;;;6.32;1.83;;;12.40;99.90;;;;;;12302801;28;20480;-87
2021/10/24 12:02:53;;;;;;;6.75;2.38;;;12.30;99.90;;;;;;12303518;28;20057;-86
2021/10/24 12:09:04;;;;;;;9.57;1.95;;;12.20;99.90;;;;;;12303642;28;20065;-86
2021/10/24 12:15:13;;;;;;;7.97;2.08;;;12.40;99.90;;;;;;12307745;28;20124;-87
2021/10/24 12:21:23;;;;;;;5.13;2.20;;;12.40;99.90;;;;;;12313751;28;20043;-85
2021/10/24 12:27:35;;;;;;;4.97;2.00;;;12.30;99.90;;;;;;12319291;28;20067;-86
2021/10/24 12:33:41;;;;;;;5.22;1.70;;;12.50;99.90;;;;;;12314334;28;20550;-86
2021/10/24 12:39:44;;;;;;;4.90;1.63;;;12.70;99.90;;;;;;12347055;28;20055;-86
2021/10/24 12:45:52;;;;;;;4.80;1.63;;;12.70;99.90;;;;;;12313457;28;20063;-86
2021/10/24 12:52:16;;;;;;;6.03;1.67;;;12.80;99.90;;;;;;12310831;28;20149;-86
2021/10/24 12:58:17;;;;;;;4.70;1.60;;;12.90;99.90;;;;;;12312607;28;20069;-87
2021/10/24 13:04:20;;;;;;;5.97;1.58;;;12.80;99.90;;;;;;12306627;28;20109;-87
2021/10/24 13:10:22;;;;;;;4.72;1.80;;;12.90;99.90;;;;;;12340304;28;20455;-86
2021/10/24 13:16:24;;;;;;;5.97;1.77;;;12.90;99.90;;;;;;12308218;28;20047;-85
2021/10/24 13:28:49;;;;;;;5.25;1.80;;;12.90;99.90;;;;;;12311786;28;20467;-84
2021/10/24 13:34:51;;;;;;;4.32;1.70;;;12.90;99.90;;;;;;12307165;28;20042;-88
2021/10/24 13:40:53;;;;;;;6.03;1.90;;;12.70;99.90;;;;;;12308746;28;20410;-86
2021/10/24 13:46:55;;;;;;;4.85;1.30;;;12.60;99.90;;;;;;12315230;28;20630;-87
2021/10/24 13:52:57;;;;;;;7.63;1.77;;;12.60;99.90;;;;;;12307323;28;20121;-85
2021/10/24 13:58:59;;;;;;;3.67;1.38;;;12.40;99.90;;;;;;12332460;28;20144;-87
2021/10/24 14:05:04;;;;;;;3.90;1.50;;;12.40;99.90;;;;;;12305625;28;20324;-86
2021/10/24 14:11:07;;;;;;;5.70;1.67;;;12.20;99.90;;;;;;12323003;28;20503;-86
2021/10/24 14:17:09;;;;;;;3.75;1.35;;;12.20;99.90;;;;;;12298084;28;20050;-86
2021/10/24 14:23:10;;;;;;;6.72;1.60;;;12.20;99.90;;;;;;12310675;28;20157;-87
2021/10/24 14:29:12;;;;;;;5.55;1.52;;;12.10;99.90;;;;;;12298974;28;20515;-86
2021/10/24 14:35:14;;;;;;;4.05;1.65;;;12.00;99.90;;;;;;12304288;28;20057;-86
2021/10/24 14:41:18;;;;;;;2.78;1.30;;;11.90;99.90;;;;;;12308841;28;20286;-86
2021/10/24 14:47:19;;;;;;;6.03;1.67;;;11.80;99.90;;;;;;12304188;28;20055;-87
2021/10/24 14:53:21;;;;;;;3.42;1.17;;;11.80;99.90;;;;;;12308112;28;20043;-85
2021/10/24 14:59:23;;;;;;;2.80;1.40;;;11.70;99.90;;;;;;12311375;28;20962;-87
2021/10/24 15:05:27;;;;;;;4.47;1.40;;;11.70;99.90;;;;;;12306502;28;20073;-86
2021/10/24 15:11:29;;;;;;;5.63;1.57;;;11.60;99.90;;;;;;12306742;28;20063;-86
2021/10/24 15:17:41;;;;;;;5.85;1.67;;;11.50;99.90;;;;;;12339552;28;20055;-87
2021/10/24 15:23:46;;;;;;;4.47;1.42;;;11.50;99.90;;;;;;12309302;28;20972;-86
2021/10/24 15:29:52;;;;;;;8.23;1.67;;;11.40;99.90;;;;;;12305416;28;20452;-86
2021/10/24 15:35:54;;;;;;;4.80;1.42;;;11.40;99.90;;;;;;12333957;28;20050;-85
2021/10/24 15:41:57;;;;;;;9.37;1.73;;;11.30;99.90;;;;;;12306315;28;20063;-86
2021/10/24 15:47:59;;;;;;;8.50;1.98;;;11.10;99.90;;;;;;12306693;28;20062;-86
2021/10/24 15:54:01;;;;;;;4.85;1.70;;;10.90;99.90;;;;;;12311611;28;20163;-86
2021/10/24 16:00:05;;;;;;;5.95;1.60;;;10.70;99.90;;;;;;12321438;28;20526;-85
2021/10/24 16:06:07;;;;;;;5.03;1.50;;;10.70;99.90;;;;;;12313822;28;20586;-85
2021/10/24 16:12:09;;;;;;;8.40;1.65;;;10.60;99.90;;;;;;12310419;28;20129;-86
2021/10/24 16:18:12;;;;;;;5.53;1.77;;;10.50;99.90;;;;;;12310209;28;20042;-86
2021/10/24 16:24:14;;;;;;;5.53;1.65;;;10.30;99.90;;;;;;12309867;28;20906;-86
2021/10/24 16:30:17;;;;;;;5.57;1.73;;;10.30;99.90;;;;;;12308668;28;20384;-86
2021/10/24 16:36:19;;;;;;;4.68;1.80;;;10.30;99.90;;;;;;12313070;28;20059;-86
2021/10/24 16:42:21;;;;;;;3.95;1.67;;;10.10;99.90;;;;;;12310870;28;20077;-87
2021/10/24 16:48:24;;;;;;;3.85;1.60;;;10.00;99.90;;;;;;12314428;28;20515;-86
2021/10/24 16:54:26;;;;;;;4.68;1.90;;;10.00;99.90;;;;;;12312838;28;20472;-87
2021/10/24 17:00:28;;;;;;;3.58;1.58;;;10.10;99.90;;;;;;12308028;28;20053;-85
2021/10/24 17:06:30;;;;;;;5.88;2.10;;;10.00;99.90;;;;;;12322144;28;20055;-84
2021/10/24 17:12:32;;;;;;;4.78;2.05;;;10.00;99.90;;;;;;12308590;28;20062;-87
2021/10/24 17:18:34;;;;;;;4.50;1.77;;;10.00;99.90;;;;;;12305630;28;20145;-86
2021/10/24 17:24:36;;;;;;;4.78;1.95;;;10.00;99.90;;;;;;12307228;28;20451;-84
2021/10/24 17:30:38;;;;;;;6.57;2.10;;;10.00;99.90;;;;;;12339666;28;20055;-84
2021/10/24 17:36:42;;;;;;;4.38;1.85;;;10.10;99.90;;;;;;12313284;28;20130;-85
2021/10/24 17:42:44;;;;;;;8.05;1.77;;;10.10;99.90;;;;;;12340180;28;20062;-85
2021/10/24 17:48:46;;;;;;;4.43;2.00;;;10.10;99.90;;;;;;12307045;28;20579;-86
2021/10/24 17:54:48;;;;;;;4.82;1.60;;;10.20;99.90;;;;;;12309645;28;20046;-87
2021/10/24 18:00:50;;;;;;;8.15;2.00;;;10.20;99.90;;;;;;12307110;28;20105;-84
2021/10/24 18:06:52;;;;;;;5.82;1.77;;;10.30;99.90;;;;;;12309929;28;20419;-84
2021/10/24 18:12:55;;;;;;;4.07;1.60;;;10.20;99.90;;;;;;12309194;28;20162;-85
2021/10/24 18:18:57;;;;;;;4.50;1.90;;;10.10;99.90;;;;;;12311081;28;20107;-84
2021/10/24 18:24:59;;;;;;;5.13;1.90;;;10.20;99.90;;;;;;12326326;28;20062;-85
2021/10/24 18:31:01;;;;;;;3.88;1.80;;;10.00;99.90;;;;;;12305961;28;20511;-84
2021/10/24 18:37:04;;;;;;;3.58;1.48;;;10.00;99.90;;;;;;12306610;28;20700;-86
2021/10/24 18:43:06;;;;;;;3.88;1.90;;;9.90;99.90;;;;;;12311323;28;20105;-86
2021/10/24 18:49:08;;;;;;;5.72;1.70;;;10.00;99.90;;;;;;12307269;28;20054;-86
2021/10/24 18:55:10;;;;;;;4.93;1.77;;;9.80;99.90;;;;;;12308735;28;20412;-85
2021/10/24 19:01:12;;;;;;;4.32;1.80;;;9.80;99.90;;;;;;12304557;28;20043;-84
2021/10/24 19:07:14;;;;;;;6.93;2.30;;;9.70;99.90;;;;;;12298114;28;20054;-84
2021/10/24 19:13:16;;;;;;;6.25;2.00;;;9.70;99.90;;;;;;12312303;28;20050;-87
2021/10/24 19:19:19;;;;;;;5.38;1.98;;;9.60;99.90;;;;;;12307698;28;20063;-86
2021/10/24 19:25:21;;;;;;;4.35;1.67;;;9.60;99.90;;;;;;12318589;28;20079;-84
2021/10/24 19:31:23;;;;;;;4.35;1.95;;;9.50;99.90;;;;;;12317419;28;20070;-85
2021/10/24 19:37:25;;;;;;;5.40;2.05;;;9.40;99.90;;;;;;12320494;28;20519;-84
2021/10/24 19:43:27;;;;;;;5.65;1.90;;;9.30;99.90;;;;;;12315303;28;20105;-86
2021/10/24 19:49:29;;;;;;;5.15;1.70;;;9.20;99.90;;;;;;12314694;28;20121;-84
2021/10/24 19:55:33;;;;;;;8.35;2.10;;;9.20;99.90;;;;;;12316764;28;21045;-85
2021/10/24 20:01:35;;;;;;;6.50;2.20;;;9.00;99.90;;;;;;12347557;28;20039;-83
2021/10/24 20:07:38;;;;;;;5.47;2.00;;;8.90;99.90;;;;;;12347533;28;20059;-85
2021/10/24 20:13:39;;;;;;;5.32;2.00;;;8.90;99.90;;;;;;12315334;28;20063;-85
2021/10/24 20:19:41;;;;;;;4.22;1.52;;;8.80;99.90;;;;;;12312604;28;20467;-87
2021/10/24 20:25:43;;;;;;;5.82;1.90;;;9.00;99.90;;;;;;12311623;28;20134;-83
2021/10/24 20:31:45;;;;;;;6.78;2.33;;;9.20;99.90;;;;;;12310329;28;20051;-84
2021/10/24 20:37:47;;;;;;;6.32;1.85;;;9.20;99.90;;;;;;12307396;28;20545;-84
2021/10/24 20:43:50;;;;;;;3.83;1.95;;;9.10;99.90;;;;;;12311278;28;20059;-87
2021/10/24 20:49:53;;;;;;;6.75;2.55;;;8.90;99.90;;;;;;12309188;28;20632;-87
2021/10/24 20:55:55;;;;;;;5.05;2.20;;;8.70;99.90;;;;;;12315884;28;20464;-85
2021/10/24 21:01:57;;;;;;;4.53;1.92;;;8.50;99.90;;;;;;12313441;28;20045;-83
2021/10/24 21:07:59;;;;;;;7.38;2.47;;;8.50;99.90;;;;;;12316336;28;20057;-84
2021/10/24 21:14:01;;;;;;;6.70;2.20;;;8.40;99.90;;;;;;12310002;28;20644;-86
2021/10/24 21:20:04;;;;;;;5.22;2.25;;;8.40;99.90;;;;;;12316952;28;20058;-86
2021/10/24 21:26:06;;;;;;;6.55;2.58;;;8.30;99.90;;;;;;12326532;28;20049;-85
2021/10/24 21:32:08;;;;;;;3.65;2.20;;;8.30;99.90;;;;;;12308635;28;20050;-84
2021/10/24 21:38:10;;;;;;;5.45;2.10;;;8.20;99.90;;;;;;12307432;28;20617;-86
2021/10/24 21:44:13;;;;;;;4.97;2.33;;;8.10;99.90;;;;;;12341554;28;20133;-86
2021/10/24 21:50:17;;;;;;;3.60;2.20;;;8.00;99.90;;;;;;12337314;28;20575;-84
2021/10/24 21:56:19;;;;;;;6.95;2.60;;;7.90;99.90;;;;;;12308048;28;20131;-86
2021/10/24 22:02:21;;;;;;;6.20;2.83;;;7.90;99.90;;;;;;12339767;28;20047;-84
2021/10/24 22:08:23;;;;;;;6.45;2.63;;;7.80;99.90;;;;;;12306128;28;20062;-84
2021/10/24 22:14:40;;;;;;;5.70;2.65;;;7.70;99.90;;;;;;12309201;28;20573;-85
2021/10/24 22:20:44;;;;;;;5.65;2.38;;;7.60;99.90;;;;;;12307507;28;20101;-86
2021/10/24 22:26:46;;;;;;;7.25;2.67;;;7.60;99.90;;;;;;12305239;28;20062;-85
2021/10/24 22:32:48;;;;;;;6.22;2.42;;;7.60;99.90;;;;;;12303658;28;20177;-86
2021/10/24 22:38:50;;;;;;;5.60;2.17;;;7.60;99.90;;;;;;12300366;28;20594;-86
2021/10/24 22:44:53;;;;;;;8.50;2.30;;;7.60;99.90;;;;;;12297192;28;20046;-86
2021/10/24 22:50:56;;;;;;;5.28;2.22;;;7.60;99.90;;;;;;12306601;28;20360;-85
2021/10/24 22:56:58;;;;;;;6.50;2.45;;;7.70;99.90;;;;;;12306280;28;20058;-85
2021/10/24 23:03:01;;;;;;;6.20;2.60;;;7.70;99.90;;;;;;12308394;28;20519;-85
2021/10/24 23:09:03;;;;;;;4.43;2.40;;;7.60;99.90;;;;;;12308897;28;20046;-85
2021/10/24 23:15:06;;;;;;;6.38;2.60;;;7.70;99.90;;;;;;12309731;28;20157;-86
2021/10/24 23:21:08;;;;;;;7.25;2.53;;;7.70;99.90;;;;;;12312243;28;20057;-86
2021/10/24 23:27:10;;;;;;;7.07;3.13;;;7.60;99.90;;;;;;12313153;28;20121;-85
2021/10/24 23:33:11;;;;;;;5.18;2.40;;;7.70;99.90;;;;;;12301868;28;20042;-86
2021/10/24 23:39:14;;;;;;;6.93;2.70;;;7.60;99.90;;;;;;12304513;28;20054;-85
2021/10/24 23:45:16;;;;;;;4.78;2.65;;;7.60;99.90;;;;;;12338217;28;20089;-85
2021/10/24 23:51:18;;;;;;;6.13;2.35;;;7.60;99.90;;;;;;12305604;28;20050;-86
2021/10/24 23:57:20;;;;;;;9.02;2.97;;;7.60;99.90;;;;;;12304769;28;20062;-85
